Kenora Airport
CYQK : now visible

Airfield :











YOU CAN JOIN US ON...

 
LOGIN :

Register | Disclaimer

   EN    FR    IT 

 









Legend :    VFR   Marginal VFR   IFR   Intensive IFR   Very Intensive IFR
Visi :
Ceiling :
>= 8 km
>= 3000ft
5 to 8 km
1000 to 3000 ft
1500m to 5 km
500 to 1000 ft
800 to 1500m
200 to 500 ft
< 800m
< 200 ft
Symbols :   Thunderstorms  Fog  Heavy snow  Heavy precipitations  Wind > 20 kt






- Airport Elevation : 1332 ft
- IATA code : YQK


CYQK - Kenora

CURRENT METAR :
  • 261700Z 26010G20KT 20SM BKN035 BKN058 M03/M11 A3023 RMK CU6SC1 SLP264

EXPIRED METARs :
  • 261600Z 25010KT 20SM FEW010 BKN060 BKN240 M04/M08 A3023 RMK CU2SC4CI1 SLP266
  • 261511Z 24006KT 20SM VCSH FEW016 SCT038 BKN058 M05/M08 A3023 RMK CU2CU1SC3 SLP266
  • 261500Z 24006KT 15SM -SHSN SCT016 BKN059 M05/M08 A3024 RMK CU3SC4 +SHSN IN VCNTY SLP268

TAF TAF CYQK
Valid from the 26 at 14:00 until the 27 at 02:00 UTC


261341Z 2614/2702 26005KT P6SM BKN060
TEMPO 2614/2616 P6SM -SHSN
FM261600 24012KT P6SM FEW015 BKN030
TEMPO 2616/2618 5SM -SHSN
BECMG 2622/2624 22012KT RMK NXT FCST BY 262000Z
CZWG FIR / North America



MET'MAP, your aeronautical weather chart ! - Copyright ORBIFLY December 2007 - Disclaimer

ORBIFLY MET'MAP TEAM :

Programming & Development : Alexandra Zaïnal
Concept & original design : Baudouin d'Aumeries
Assistance for programming : Marc-Olivier Méhu
Technical & hardware support : Manuel Goepfert

Contact : metmap@orbifly.com




SOURCES & CREDITS :

   NOAA       Earth
Advisory